sensor_id;sensor_type;location;lat;lon;timestamp;temperature;humidity
67817;DHT22;54614;47.576;7.524;2022-08-30T00:01:30;27.60;63.20
67817;DHT22;54614;47.576;7.524;2022-08-30T00:03:58;27.60;63.00
67817;DHT22;54614;47.576;7.524;2022-08-30T00:06:26;27.60;62.80
67817;DHT22;54614;47.576;7.524;2022-08-30T00:08:54;27.60;62.90
67817;DHT22;54614;47.576;7.524;2022-08-30T00:11:23;27.50;63.10
67817;DHT22;54614;47.576;7.524;2022-08-30T00:13:53;27.60;62.80
67817;DHT22;54614;47.576;7.524;2022-08-30T00:16:21;27.60;62.80
67817;DHT22;54614;47.576;7.524;2022-08-30T00:18:49;27.60;62.80
67817;DHT22;54614;47.576;7.524;2022-08-30T00:21:15;27.60;62.90
67817;DHT22;54614;47.576;7.524;2022-08-30T00:23:41;27.60;62.80
67817;DHT22;54614;47.576;7.524;2022-08-30T00:26:08;27.60;62.80
67817;DHT22;54614;47.576;7.524;2022-08-30T00:28:34;27.60;62.80
67817;DHT22;54614;47.576;7.524;2022-08-30T00:31:01;27.60;62.90
67817;DHT22;54614;47.576;7.524;2022-08-30T00:33:27;27.60;62.80
67817;DHT22;54614;47.576;7.524;2022-08-30T00:35:54;27.50;62.90
67817;DHT22;54614;47.576;7.524;2022-08-30T00:38:20;27.60;62.80
67817;DHT22;54614;47.576;7.524;2022-08-30T00:40:48;27.60;62.70
67817;DHT22;54614;47.576;7.524;2022-08-30T00:43:25;27.60;62.60
67817;DHT22;54614;47.576;7.524;2022-08-30T00:45:53;27.60;62.60
67817;DHT22;54614;47.576;7.524;2022-08-30T00:48:20;27.60;62.70
67817;DHT22;54614;47.576;7.524;2022-08-30T00:50:59;27.60;62.70
67817;DHT22;54614;47.576;7.524;2022-08-30T00:53:34;27.60;62.70
67817;DHT22;54614;47.576;7.524;2022-08-30T00:56:04;27.60;63.20
67817;DHT22;54614;47.576;7.524;2022-08-30T00:58:34;27.50;62.90
67817;DHT22;54614;47.576;7.524;2022-08-30T01:01:04;27.60;62.60
67817;DHT22;54614;47.576;7.524;2022-08-30T01:03:33;27.40;63.10
67817;DHT22;54614;47.576;7.524;2022-08-30T01:06:00;27.30;63.50
67817;DHT22;54614;47.576;7.524;2022-08-30T01:08:28;27.30;63.20
67817;DHT22;54614;47.576;7.524;2022-08-30T01:10:55;27.30;63.30
67817;DHT22;54614;47.576;7.524;2022-08-30T01:13:23;27.30;63.20
67817;DHT22;54614;47.576;7.524;2022-08-30T01:15:51;27.30;63.50
67817;DHT22;54614;47.576;7.524;2022-08-30T01:18:19;27.40;62.80
67817;DHT22;54614;47.576;7.524;2022-08-30T01:23:48;27.40;63.00
67817;DHT22;54614;47.576;7.524;2022-08-30T01:26:18;27.30;63.40
67817;DHT22;54614;47.576;7.524;2022-08-30T01:28:51;27.20;63.40
67817;DHT22;54614;47.576;7.524;2022-08-30T01:31:19;27.20;63.50
67817;DHT22;54614;47.576;7.524;2022-08-30T01:33:45;27.20;63.60
67817;DHT22;54614;47.576;7.524;2022-08-30T01:36:13;27.20;63.60
67817;DHT22;54614;47.576;7.524;2022-08-30T01:38:44;27.20;63.60
67817;DHT22;54614;47.576;7.524;2022-08-30T01:41:18;27.20;63.60
67817;DHT22;54614;47.576;7.524;2022-08-30T01:43:46;27.20;63.70
67817;DHT22;54614;47.576;7.524;2022-08-30T01:46:16;27.10;63.60
67817;DHT22;54614;47.576;7.524;2022-08-30T01:48:44;27.20;63.60
67817;DHT22;54614;47.576;7.524;2022-08-30T01:51:13;27.10;63.60
67817;DHT22;54614;47.576;7.524;2022-08-30T01:53:40;27.10;63.60
67817;DHT22;54614;47.576;7.524;2022-08-30T01:56:09;27.10;63.50
67817;DHT22;54614;47.576;7.524;2022-08-30T01:58:37;27.20;63.60
67817;DHT22;54614;47.576;7.524;2022-08-30T02:01:06;27.10;63.50
67817;DHT22;54614;47.576;7.524;2022-08-30T02:03:38;27.20;63.50
67817;DHT22;54614;47.576;7.524;2022-08-30T02:06:07;27.20;63.60
67817;DHT22;54614;47.576;7.524;2022-08-30T02:08:36;27.10;63.40
67817;DHT22;54614;47.576;7.524;2022-08-30T02:11:03;27.10;63.50
67817;DHT22;54614;47.576;7.524;2022-08-30T02:13:31;27.10;63.50
67817;DHT22;54614;47.576;7.524;2022-08-30T02:15:58;27.20;63.40
67817;DHT22;54614;47.576;7.524;2022-08-30T02:18:25;27.20;63.20
67817;DHT22;54614;47.576;7.524;2022-08-30T02:20:52;27.10;63.30
67817;DHT22;54614;47.576;7.524;2022-08-30T02:23:18;27.10;63.30
67817;DHT22;54614;47.576;7.524;2022-08-30T02:25:44;27.10;63.40
67817;DHT22;54614;47.576;7.524;2022-08-30T02:28:10;27.10;63.30
67817;DHT22;54614;47.576;7.524;2022-08-30T02:30:38;27.10;63.40
67817;DHT22;54614;47.576;7.524;2022-08-30T02:33:04;27.10;63.30
67817;DHT22;54614;47.576;7.524;2022-08-30T02:35:30;27.10;63.20
67817;DHT22;54614;47.576;7.524;2022-08-30T02:37:56;27.10;63.40
67817;DHT22;54614;47.576;7.524;2022-08-30T02:40:22;27.10;63.20
67817;DHT22;54614;47.576;7.524;2022-08-30T02:42:48;27.10;63.30
67817;DHT22;54614;47.576;7.524;2022-08-30T02:45:14;27.10;63.10
67817;DHT22;54614;47.576;7.524;2022-08-30T02:47:41;27.10;63.10
67817;DHT22;54614;47.576;7.524;2022-08-30T02:50:09;27.10;63.20
67817;DHT22;54614;47.576;7.524;2022-08-30T02:52:36;27.10;63.20
67817;DHT22;54614;47.576;7.524;2022-08-30T02:55:05;27.10;63.20
67817;DHT22;54614;47.576;7.524;2022-08-30T02:57:31;27.10;63.00
67817;DHT22;54614;47.576;7.524;2022-08-30T02:59:58;27.10;63.10
67817;DHT22;54614;47.576;7.524;2022-08-30T03:02:24;27.10;63.00
67817;DHT22;54614;47.576;7.524;2022-08-30T03:04:51;27.10;63.10
67817;DHT22;54614;47.576;7.524;2022-08-30T03:07:17;27.10;63.00
67817;DHT22;54614;47.576;7.524;2022-08-30T03:09:44;27.10;63.10
67817;DHT22;54614;47.576;7.524;2022-08-30T03:12:10;27.10;63.00
67817;DHT22;54614;47.576;7.524;2022-08-30T03:14:38;27.10;63.00
67817;DHT22;54614;47.576;7.524;2022-08-30T03:17:05;27.10;62.90
67817;DHT22;54614;47.576;7.524;2022-08-30T03:19:34;27.10;63.00
67817;DHT22;54614;47.576;7.524;2022-08-30T03:22:04;27.10;63.00
67817;DHT22;54614;47.576;7.524;2022-08-30T03:24:32;27.10;63.00
67817;DHT22;54614;47.576;7.524;2022-08-30T03:26:59;27.10;63.00
67817;DHT22;54614;47.576;7.524;2022-08-30T03:29:25;27.10;63.00
67817;DHT22;54614;47.576;7.524;2022-08-30T03:31:50;27.10;63.00
67817;DHT22;54614;47.576;7.524;2022-08-30T03:34:17;27.10;63.00
67817;DHT22;54614;47.576;7.524;2022-08-30T03:36:43;27.10;62.80
67817;DHT22;54614;47.576;7.524;2022-08-30T03:39:09;27.10;62.60
67817;DHT22;54614;47.576;7.524;2022-08-30T03:41:35;27.10;62.60
67817;DHT22;54614;47.576;7.524;2022-08-30T03:44:01;27.10;62.70
67817;DHT22;54614;47.576;7.524;2022-08-30T03:46:28;27.10;62.80
67817;DHT22;54614;47.576;7.524;2022-08-30T03:48:54;27.10;62.70
67817;DHT22;54614;47.576;7.524;2022-08-30T03:51:21;27.10;62.60
67817;DHT22;54614;47.576;7.524;2022-08-30T03:53:48;27.10;62.60
67817;DHT22;54614;47.576;7.524;2022-08-30T03:56:14;27.10;62.70
67817;DHT22;54614;47.576;7.524;2022-08-30T03:58:42;27.10;62.60
67817;DHT22;54614;47.576;7.524;2022-08-30T04:01:08;27.10;62.60
67817;DHT22;54614;47.576;7.524;2022-08-30T04:03:34;27.10;62.70
67817;DHT22;54614;47.576;7.524;2022-08-30T04:06:00;27.10;62.50
67817;DHT22;54614;47.576;7.524;2022-08-30T04:08:26;27.40;63.00
67817;DHT22;54614;47.576;7.524;2022-08-30T04:10:53;27.30;63.00
67817;DHT22;54614;47.576;7.524;2022-08-30T04:13:20;27.20;62.90
67817;DHT22;54614;47.576;7.524;2022-08-30T04:15:49;27.20;63.10
67817;DHT22;54614;47.576;7.524;2022-08-30T04:18:16;27.20;62.80
67817;DHT22;54614;47.576;7.524;2022-08-30T04:20:42;27.20;63.10
67817;DHT22;54614;47.576;7.524;2022-08-30T04:23:09;27.10;63.00
67817;DHT22;54614;47.576;7.524;2022-08-30T04:25:37;27.10;62.90
67817;DHT22;54614;47.576;7.524;2022-08-30T04:28:05;27.10;62.80
67817;DHT22;54614;47.576;7.524;2022-08-30T04:30:31;27.20;61.90
67817;DHT22;54614;47.576;7.524;2022-08-30T04:32:58;27.30;61.60
67817;DHT22;54614;47.576;7.524;2022-08-30T04:35:24;27.40;61.60
67817;DHT22;54614;47.576;7.524;2022-08-30T04:37:50;27.50;61.10
67817;DHT22;54614;47.576;7.524;2022-08-30T04:40:16;27.50;61.10
67817;DHT22;54614;47.576;7.524;2022-08-30T04:42:42;27.50;60.90
67817;DHT22;54614;47.576;7.524;2022-08-30T04:45:12;27.50;61.10
67817;DHT22;54614;47.576;7.524;2022-08-30T04:47:43;27.50;61.10
67817;DHT22;54614;47.576;7.524;2022-08-30T04:50:13;27.50;60.90
67817;DHT22;54614;47.576;7.524;2022-08-30T04:52:41;27.30;61.40
67817;DHT22;54614;47.576;7.524;2022-08-30T04:55:08;27.10;61.50
67817;DHT22;54614;47.576;7.524;2022-08-30T04:57:36;27.00;61.40
67817;DHT22;54614;47.576;7.524;2022-08-30T05:00:05;27.00;61.30
67817;DHT22;54614;47.576;7.524;2022-08-30T05:02:33;27.00;61.30
67817;DHT22;54614;47.576;7.524;2022-08-30T05:05:00;27.00;61.90
67817;DHT22;54614;47.576;7.524;2022-08-30T05:07:46;26.90;60.20
67817;DHT22;54614;47.576;7.524;2022-08-30T05:10:12;26.70;59.10
67817;DHT22;54614;47.576;7.524;2022-08-30T05:12:38;26.60;59.00
67817;DHT22;54614;47.576;7.524;2022-08-30T05:15:05;26.40;59.30
67817;DHT22;54614;47.576;7.524;2022-08-30T05:17:32;26.40;59.20
67817;DHT22;54614;47.576;7.524;2022-08-30T05:20:00;26.30;59.20
67817;DHT22;54614;47.576;7.524;2022-08-30T05:22:26;26.20;59.30
67817;DHT22;54614;47.576;7.524;2022-08-30T05:24:52;26.30;59.70
67817;DHT22;54614;47.576;7.524;2022-08-30T05:27:18;26.30;59.40
67817;DHT22;54614;47.576;7.524;2022-08-30T05:29:44;26.20;59.40
67817;DHT22;54614;47.576;7.524;2022-08-30T05:32:10;26.10;59.30
67817;DHT22;54614;47.576;7.524;2022-08-30T05:34:36;26.10;59.40
67817;DHT22;54614;47.576;7.524;2022-08-30T05:37:02;26.10;60.00
67817;DHT22;54614;47.576;7.524;2022-08-30T05:39:29;26.20;59.70
67817;DHT22;54614;47.576;7.524;2022-08-30T05:41:56;26.30;60.30
67817;DHT22;54614;47.576;7.524;2022-08-30T05:44:22;26.40;60.00
67817;DHT22;54614;47.576;7.524;2022-08-30T05:46:48;26.40;59.90
67817;DHT22;54614;47.576;7.524;2022-08-30T05:49:14;26.40;59.90
67817;DHT22;54614;47.576;7.524;2022-08-30T05:51:40;26.40;60.00
67817;DHT22;54614;47.576;7.524;2022-08-30T05:54:07;26.30;60.30
67817;DHT22;54614;47.576;7.524;2022-08-30T05:56:35;26.30;60.30
67817;DHT22;54614;47.576;7.524;2022-08-30T05:59:06;26.20;59.90
67817;DHT22;54614;47.576;7.524;2022-08-30T06:01:35;26.20;59.80
67817;DHT22;54614;47.576;7.524;2022-08-30T06:04:06;26.20;60.10
67817;DHT22;54614;47.576;7.524;2022-08-30T06:06:35;26.10;60.00
67817;DHT22;54614;47.576;7.524;2022-08-30T06:09:04;26.10;60.10
67817;DHT22;54614;47.576;7.524;2022-08-30T06:11:34;26.10;60.20
67817;DHT22;54614;47.576;7.524;2022-08-30T06:14:01;26.00;60.10
67817;DHT22;54614;47.576;7.524;2022-08-30T06:16:28;26.10;60.10
67817;DHT22;54614;47.576;7.524;2022-08-30T06:18:56;26.00;60.00
67817;DHT22;54614;47.576;7.524;2022-08-30T06:21:25;25.90;60.30
67817;DHT22;54614;47.576;7.524;2022-08-30T06:23:54;25.80;60.60
67817;DHT22;54614;47.576;7.524;2022-08-30T06:26:21;25.70;60.90
67817;DHT22;54614;47.576;7.524;2022-08-30T06:28:48;25.70;61.00
67817;DHT22;54614;47.576;7.524;2022-08-30T06:31:16;25.70;61.50
67817;DHT22;54614;47.576;7.524;2022-08-30T06:33:44;25.70;61.50
67817;DHT22;54614;47.576;7.524;2022-08-30T06:36:14;25.70;62.20
67817;DHT22;54614;47.576;7.524;2022-08-30T06:38:42;25.60;62.50
67817;DHT22;54614;47.576;7.524;2022-08-30T06:41:12;25.60;62.60
67817;DHT22;54614;47.576;7.524;2022-08-30T06:43:43;25.50;63.50
67817;DHT22;54614;47.576;7.524;2022-08-30T06:46:13;25.50;64.20
67817;DHT22;54614;47.576;7.524;2022-08-30T06:51:08;25.20;64.20
67817;DHT22;54614;47.576;7.524;2022-08-30T06:53:34;24.80;65.90
67817;DHT22;54614;47.576;7.524;2022-08-30T06:56:07;24.10;67.60
67817;DHT22;54614;47.576;7.524;2022-08-30T06:58:36;23.30;70.20
67817;DHT22;54614;47.576;7.524;2022-08-30T07:01:04;23.10;71.00
67817;DHT22;54614;47.576;7.524;2022-08-30T07:03:31;23.60;70.10
67817;DHT22;54614;47.576;7.524;2022-08-30T07:05:57;24.20;68.50
67817;DHT22;54614;47.576;7.524;2022-08-30T07:08:23;24.70;67.30
67817;DHT22;54614;47.576;7.524;2022-08-30T07:10:51;25.00;67.30
67817;DHT22;54614;47.576;7.524;2022-08-30T07:13:19;25.20;67.20
67817;DHT22;54614;47.576;7.524;2022-08-30T07:15:46;25.20;68.00
67817;DHT22;54614;47.576;7.524;2022-08-30T07:18:13;25.30;65.60
67817;DHT22;54614;47.576;7.524;2022-08-30T07:21:03;25.30;66.20
67817;DHT22;54614;47.576;7.524;2022-08-30T07:23:34;25.40;65.40
67817;DHT22;54614;47.576;7.524;2022-08-30T07:26:06;25.40;65.20
67817;DHT22;54614;47.576;7.524;2022-08-30T07:28:35;25.50;64.90
67817;DHT22;54614;47.576;7.524;2022-08-30T07:31:04;25.50;64.90
67817;DHT22;54614;47.576;7.524;2022-08-30T07:33:32;25.60;65.30
67817;DHT22;54614;47.576;7.524;2022-08-30T07:38:26;25.70;64.10
67817;DHT22;54614;47.576;7.524;2022-08-30T07:40:52;25.80;74.60
67817;DHT22;54614;47.576;7.524;2022-08-30T07:43:19;25.90;70.90
67817;DHT22;54614;47.576;7.524;2022-08-30T07:45:45;25.90;68.40
67817;DHT22;54614;47.576;7.524;2022-08-30T07:48:11;25.90;67.20
67817;DHT22;54614;47.576;7.524;2022-08-30T07:50:42;25.90;66.40
67817;DHT22;54614;47.576;7.524;2022-08-30T07:53:09;26.00;66.30
67817;DHT22;54614;47.576;7.524;2022-08-30T07:55:35;26.00;65.70
67817;DHT22;54614;47.576;7.524;2022-08-30T07:58:01;25.90;66.40
67817;DHT22;54614;47.576;7.524;2022-08-30T08:00:27;25.90;66.10
67817;DHT22;54614;47.576;7.524;2022-08-30T08:02:53;25.90;66.10
67817;DHT22;54614;47.576;7.524;2022-08-30T08:05:19;25.90;66.30
67817;DHT22;54614;47.576;7.524;2022-08-30T08:07:45;26.00;66.10
67817;DHT22;54614;47.576;7.524;2022-08-30T08:10:11;26.00;66.00
67817;DHT22;54614;47.576;7.524;2022-08-30T08:12:38;26.00;66.20
67817;DHT22;54614;47.576;7.524;2022-08-30T08:15:06;26.00;66.10
67817;DHT22;54614;47.576;7.524;2022-08-30T08:17:32;26.10;66.00
67817;DHT22;54614;47.576;7.524;2022-08-30T08:19:58;26.10;66.20
67817;DHT22;54614;47.576;7.524;2022-08-30T08:22:23;26.20;65.50
67817;DHT22;54614;47.576;7.524;2022-08-30T08:24:49;26.30;66.00
67817;DHT22;54614;47.576;7.524;2022-08-30T08:27:15;26.20;66.20
67817;DHT22;54614;47.576;7.524;2022-08-30T08:29:41;26.20;66.20
67817;DHT22;54614;47.576;7.524;2022-08-30T08:32:07;26.20;66.20
67817;DHT22;54614;47.576;7.524;2022-08-30T08:34:34;26.30;66.20
67817;DHT22;54614;47.576;7.524;2022-08-30T08:37:01;26.30;66.30
67817;DHT22;54614;47.576;7.524;2022-08-30T08:39:27;26.30;66.40
67817;DHT22;54614;47.576;7.524;2022-08-30T08:47:40;26.60;65.40
67817;DHT22;54614;47.576;7.524;2022-08-30T08:50:14;26.60;65.60
67817;DHT22;54614;47.576;7.524;2022-08-30T08:53:15;26.90;64.20
67817;DHT22;54614;47.576;7.524;2022-08-30T08:56:09;27.00;64.00
67817;DHT22;54614;47.576;7.524;2022-08-30T08:58:48;27.20;63.50
67817;DHT22;54614;47.576;7.524;2022-08-30T09:01:22;27.20;63.20
67817;DHT22;54614;47.576;7.524;2022-08-30T09:03:53;27.30;63.20
67817;DHT22;54614;47.576;7.524;2022-08-30T09:06:45;27.30;63.20
67817;DHT22;54614;47.576;7.524;2022-08-30T09:09:20;27.20;63.40
67817;DHT22;54614;47.576;7.524;2022-08-30T09:12:07;27.30;63.50
67817;DHT22;54614;47.576;7.524;2022-08-30T09:14:38;27.40;62.90
67817;DHT22;54614;47.576;7.524;2022-08-30T09:17:10;27.50;62.80
67817;DHT22;54614;47.576;7.524;2022-08-30T09:19:56;27.40;62.80
67817;DHT22;54614;47.576;7.524;2022-08-30T09:22:36;27.30;62.90
67817;DHT22;54614;47.576;7.524;2022-08-30T09:27:42;27.30;63.20
67817;DHT22;54614;47.576;7.524;2022-08-30T09:30:16;27.20;63.20
67817;DHT22;54614;47.576;7.524;2022-08-30T09:32:57;27.20;63.30
67817;DHT22;54614;47.576;7.524;2022-08-30T09:35:40;27.20;63.30
67817;DHT22;54614;47.576;7.524;2022-08-30T09:38:15;27.10;63.30
67817;DHT22;54614;47.576;7.524;2022-08-30T09:40:56;27.20;63.40
67817;DHT22;54614;47.576;7.524;2022-08-30T09:43:33;27.10;63.50
67817;DHT22;54614;47.576;7.524;2022-08-30T09:48:51;27.20;63.30
67817;DHT22;54614;47.576;7.524;2022-08-30T10:13:37;27.40;62.80
67817;DHT22;54614;47.576;7.524;2022-08-30T10:19:57;27.40;62.90
67817;DHT22;54614;47.576;7.524;2022-08-30T10:22:50;27.40;62.90
67817;DHT22;54614;47.576;7.524;2022-08-30T10:25:31;27.40;62.90
67817;DHT22;54614;47.576;7.524;2022-08-30T10:30:50;27.40;63.10
67817;DHT22;54614;47.576;7.524;2022-08-30T10:33:24;27.30;63.10
67817;DHT22;54614;47.576;7.524;2022-08-30T10:35:57;27.40;63.00
67817;DHT22;54614;47.576;7.524;2022-08-30T10:38:31;27.30;63.20
67817;DHT22;54614;47.576;7.524;2022-08-30T10:44:21;27.20;63.50
67817;DHT22;54614;47.576;7.524;2022-08-30T10:47:07;27.20;63.60
67817;DHT22;54614;47.576;7.524;2022-08-30T10:49:38;27.20;63.70
67817;DHT22;54614;47.576;7.524;2022-08-30T10:55:10;27.20;63.50
67817;DHT22;54614;47.576;7.524;2022-08-30T10:57:40;27.20;63.60
67817;DHT22;54614;47.576;7.524;2022-08-30T11:00:10;27.20;63.60
67817;DHT22;54614;47.576;7.524;2022-08-30T11:03:03;27.20;63.60
67817;DHT22;54614;47.576;7.524;2022-08-30T11:09:12;27.20;63.60
67817;DHT22;54614;47.576;7.524;2022-08-30T11:12:15;27.20;63.60
67817;DHT22;54614;47.576;7.524;2022-08-30T11:14:46;27.10;64.20
67817;DHT22;54614;47.576;7.524;2022-08-30T11:17:45;26.90;64.40
67817;DHT22;54614;47.576;7.524;2022-08-30T11:20:40;26.90;64.80
67817;DHT22;54614;47.576;7.524;2022-08-30T11:33:52;26.70;66.10
67817;DHT22;54614;47.576;7.524;2022-08-30T11:39:00;26.80;66.40
67817;DHT22;54614;47.576;7.524;2022-08-30T11:46:50;26.80;66.10
67817;DHT22;54614;47.576;7.524;2022-08-30T11:52:23;27.10;65.00
67817;DHT22;54614;47.576;7.524;2022-08-30T12:00:42;27.30;64.40
67817;DHT22;54614;47.576;7.524;2022-08-30T12:10:50;27.00;65.30
67817;DHT22;54614;47.576;7.524;2022-08-30T12:16:02;27.20;64.50
67817;DHT22;54614;47.576;7.524;2022-08-30T12:26:39;27.30;64.30
67817;DHT22;54614;47.576;7.524;2022-08-30T12:29:14;27.30;64.20
67817;DHT22;54614;47.576;7.524;2022-08-30T12:37:22;27.30;64.00
67817;DHT22;54614;47.576;7.524;2022-08-30T12:40:05;27.30;64.10
67817;DHT22;54614;47.576;7.524;2022-08-30T12:42:53;27.30;64.20
67817;DHT22;54614;47.576;7.524;2022-08-30T12:45:24;27.40;64.10
67817;DHT22;54614;47.576;7.524;2022-08-30T12:48:03;27.30;64.80
67817;DHT22;54614;47.576;7.524;2022-08-30T12:50:47;27.40;64.10
67817;DHT22;54614;47.576;7.524;2022-08-30T12:53:27;27.30;64.00
67817;DHT22;54614;47.576;7.524;2022-08-30T12:56:15;27.30;64.00
67817;DHT22;54614;47.576;7.524;2022-08-30T13:01:24;27.30;64.00
67817;DHT22;54614;47.576;7.524;2022-08-30T13:04:01;27.30;64.00
67817;DHT22;54614;47.576;7.524;2022-08-30T13:06:41;27.30;64.20
67817;DHT22;54614;47.576;7.524;2022-08-30T13:09:35;27.40;64.10
67817;DHT22;54614;47.576;7.524;2022-08-30T13:12:18;27.40;64.00
67817;DHT22;54614;47.576;7.524;2022-08-30T13:14:46;27.20;65.10
67817;DHT22;54614;47.576;7.524;2022-08-30T13:17:25;27.10;65.90
67817;DHT22;54614;47.576;7.524;2022-08-30T13:20:03;27.00;66.20
67817;DHT22;54614;47.576;7.524;2022-08-30T13:23:00;26.90;66.30
67817;DHT22;54614;47.576;7.524;2022-08-30T13:25:33;27.00;67.10
67817;DHT22;54614;47.576;7.524;2022-08-30T13:28:01;27.10;66.00
67817;DHT22;54614;47.576;7.524;2022-08-30T13:30:31;27.10;65.70
67817;DHT22;54614;47.576;7.524;2022-08-30T13:32:58;27.20;65.60
67817;DHT22;54614;47.576;7.524;2022-08-30T13:35:27;27.20;65.60
67817;DHT22;54614;47.576;7.524;2022-08-30T13:37:55;27.10;65.70
67817;DHT22;54614;47.576;7.524;2022-08-30T13:40:22;27.10;66.30
67817;DHT22;54614;47.576;7.524;2022-08-30T13:42:48;27.10;66.30
67817;DHT22;54614;47.576;7.524;2022-08-30T13:45:17;27.20;66.30
67817;DHT22;54614;47.576;7.524;2022-08-30T13:47:45;27.20;66.20
67817;DHT22;54614;47.576;7.524;2022-08-30T13:50:14;27.20;66.20
67817;DHT22;54614;47.576;7.524;2022-08-30T13:52:40;27.20;66.00
67817;DHT22;54614;47.576;7.524;2022-08-30T13:55:06;27.20;65.90
67817;DHT22;54614;47.576;7.524;2022-08-30T13:57:32;27.30;66.50
67817;DHT22;54614;47.576;7.524;2022-08-30T13:59:58;27.30;66.50
67817;DHT22;54614;47.576;7.524;2022-08-30T14:02:24;27.30;66.60
67817;DHT22;54614;47.576;7.524;2022-08-30T14:04:50;27.30;66.60
67817;DHT22;54614;47.576;7.524;2022-08-30T14:07:16;27.30;66.80
67817;DHT22;54614;47.576;7.524;2022-08-30T14:09:42;27.30;67.10
67817;DHT22;54614;47.576;7.524;2022-08-30T14:12:08;27.30;67.10
67817;DHT22;54614;47.576;7.524;2022-08-30T14:14:34;27.30;67.10
67817;DHT22;54614;47.576;7.524;2022-08-30T14:17:00;27.30;67.40
67817;DHT22;54614;47.576;7.524;2022-08-30T14:19:26;27.30;67.40
67817;DHT22;54614;47.576;7.524;2022-08-30T14:21:51;27.30;67.30
67817;DHT22;54614;47.576;7.524;2022-08-30T14:24:17;27.30;67.40
67817;DHT22;54614;47.576;7.524;2022-08-30T14:26:46;27.30;67.30
67817;DHT22;54614;47.576;7.524;2022-08-30T14:29:22;27.30;67.50
67817;DHT22;54614;47.576;7.524;2022-08-30T14:31:50;27.30;67.20
67817;DHT22;54614;47.576;7.524;2022-08-30T14:34:17;27.30;67.20
67817;DHT22;54614;47.576;7.524;2022-08-30T14:36:44;27.40;67.10
67817;DHT22;54614;47.576;7.524;2022-08-30T14:39:14;27.40;66.90
67817;DHT22;54614;47.576;7.524;2022-08-30T14:41:47;27.50;67.00
67817;DHT22;54614;47.576;7.524;2022-08-30T14:44:16;27.40;67.00
67817;DHT22;54614;47.576;7.524;2022-08-30T14:46:43;27.40;67.10
67817;DHT22;54614;47.576;7.524;2022-08-30T14:49:10;27.40;67.10
67817;DHT22;54614;47.576;7.524;2022-08-30T14:51:38;27.40;68.60
67817;DHT22;54614;47.576;7.524;2022-08-30T14:54:05;27.30;69.00
67817;DHT22;54614;47.576;7.524;2022-08-30T14:56:31;27.30;68.70
67817;DHT22;54614;47.576;7.524;2022-08-30T14:58:57;27.30;68.50
67817;DHT22;54614;47.576;7.524;2022-08-30T15:01:29;27.50;67.40
67817;DHT22;54614;47.576;7.524;2022-08-30T15:03:56;27.60;66.60
67817;DHT22;54614;47.576;7.524;2022-08-30T15:06:23;27.70;66.20
67817;DHT22;54614;47.576;7.524;2022-08-30T15:08:50;27.80;66.20
67817;DHT22;54614;47.576;7.524;2022-08-30T15:11:18;27.80;66.00
67817;DHT22;54614;47.576;7.524;2022-08-30T15:13:46;27.80;65.90
67817;DHT22;54614;47.576;7.524;2022-08-30T15:16:17;27.90;65.80
67817;DHT22;54614;47.576;7.524;2022-08-30T15:18:45;27.80;65.60
67817;DHT22;54614;47.576;7.524;2022-08-30T15:21:13;27.80;65.60
67817;DHT22;54614;47.576;7.524;2022-08-30T15:23:40;27.80;65.50
67817;DHT22;54614;47.576;7.524;2022-08-30T15:26:07;27.90;65.40
67817;DHT22;54614;47.576;7.524;2022-08-30T15:28:33;27.90;65.60
67817;DHT22;54614;47.576;7.524;2022-08-30T15:30:59;27.90;65.50
67817;DHT22;54614;47.576;7.524;2022-08-30T15:33:25;27.90;65.50
67817;DHT22;54614;47.576;7.524;2022-08-30T15:35:51;27.90;65.40
67817;DHT22;54614;47.576;7.524;2022-08-30T15:38:18;27.80;65.50
67817;DHT22;54614;47.576;7.524;2022-08-30T15:40:47;27.80;65.40
67817;DHT22;54614;47.576;7.524;2022-08-30T15:43:14;27.80;65.40
67817;DHT22;54614;47.576;7.524;2022-08-30T15:45:40;27.80;65.40
67817;DHT22;54614;47.576;7.524;2022-08-30T15:48:05;27.90;65.20
67817;DHT22;54614;47.576;7.524;2022-08-30T15:50:34;27.80;65.30
67817;DHT22;54614;47.576;7.524;2022-08-30T15:53:01;27.70;65.40
67817;DHT22;54614;47.576;7.524;2022-08-30T15:55:27;27.70;65.40
67817;DHT22;54614;47.576;7.524;2022-08-30T15:57:53;27.70;65.30
67817;DHT22;54614;47.576;7.524;2022-08-30T16:00:19;27.70;65.30
67817;DHT22;54614;47.576;7.524;2022-08-30T16:02:45;27.70;65.40
67817;DHT22;54614;47.576;7.524;2022-08-30T16:05:15;27.80;65.40
67817;DHT22;54614;47.576;7.524;2022-08-30T16:07:45;27.70;65.40
67817;DHT22;54614;47.576;7.524;2022-08-30T16:10:12;27.70;65.50
67817;DHT22;54614;47.576;7.524;2022-08-30T16:12:39;27.70;65.50
67817;DHT22;54614;47.576;7.524;2022-08-30T16:15:05;27.70;65.50
67817;DHT22;54614;47.576;7.524;2022-08-30T16:17:32;27.60;65.40
67817;DHT22;54614;47.576;7.524;2022-08-30T16:20:01;27.60;66.00
67817;DHT22;54614;47.576;7.524;2022-08-30T16:22:27;27.60;65.70
67817;DHT22;54614;47.576;7.524;2022-08-30T16:24:55;27.70;65.60
67817;DHT22;54614;47.576;7.524;2022-08-30T16:27:21;27.70;65.50
67817;DHT22;54614;47.576;7.524;2022-08-30T16:29:49;27.70;65.50
67817;DHT22;54614;47.576;7.524;2022-08-30T16:32:15;27.70;65.50
67817;DHT22;54614;47.576;7.524;2022-08-30T16:34:42;27.70;65.50
67817;DHT22;54614;47.576;7.524;2022-08-30T16:37:08;27.80;65.10
67817;DHT22;54614;47.576;7.524;2022-08-30T16:39:33;27.80;65.30
67817;DHT22;54614;47.576;7.524;2022-08-30T16:41:59;27.80;65.10
67817;DHT22;54614;47.576;7.524;2022-08-30T16:44:27;27.80;64.90
67817;DHT22;54614;47.576;7.524;2022-08-30T16:46:53;27.80;64.70
67817;DHT22;54614;47.576;7.524;2022-08-30T16:49:21;28.00;64.50
67817;DHT22;54614;47.576;7.524;2022-08-30T16:51:48;27.90;64.50
67817;DHT22;54614;47.576;7.524;2022-08-30T16:54:14;27.90;64.60
67817;DHT22;54614;47.576;7.524;2022-08-30T16:56:42;27.90;64.10
67817;DHT22;54614;47.576;7.524;2022-08-30T16:59:08;28.10;63.90
67817;DHT22;54614;47.576;7.524;2022-08-30T17:01:35;28.20;63.70
67817;DHT22;54614;47.576;7.524;2022-08-30T17:04:03;28.20;63.80
67817;DHT22;54614;47.576;7.524;2022-08-30T17:06:31;28.20;63.80
67817;DHT22;54614;47.576;7.524;2022-08-30T17:08:57;28.20;63.80
67817;DHT22;54614;47.576;7.524;2022-08-30T17:11:23;28.10;63.60
67817;DHT22;54614;47.576;7.524;2022-08-30T17:13:49;28.00;63.90
67817;DHT22;54614;47.576;7.524;2022-08-30T17:16:16;27.90;64.20
67817;DHT22;54614;47.576;7.524;2022-08-30T17:18:43;27.80;64.30
67817;DHT22;54614;47.576;7.524;2022-08-30T17:21:09;27.80;64.00
67817;DHT22;54614;47.576;7.524;2022-08-30T17:23:35;27.70;64.60
67817;DHT22;54614;47.576;7.524;2022-08-30T17:26:02;27.80;64.10
67817;DHT22;54614;47.576;7.524;2022-08-30T17:28:28;27.70;64.40
67817;DHT22;54614;47.576;7.524;2022-08-30T17:30:54;27.80;64.20
67817;DHT22;54614;47.576;7.524;2022-08-30T17:33:21;27.80;64.30
67817;DHT22;54614;47.576;7.524;2022-08-30T17:35:46;27.70;64.30